Airfield :
LOGIN :

Register | Disclaimer

   EN    FR    IT 

 










Legend :    VFR   Marginal VFR   IFR   Intensive IFR   Very Intensive IFR
Visi :
Ceiling :
>= 8 km
>= 3000ft
5 to 8 km
1000 to 3000 ft
1500m to 5 km
500 to 1000 ft
800 to 1500m
200 to 500 ft
< 800m
< 200 ft
Symbols :   Thunderstorms  Fog  Heavy snow  Heavy precipitations  Wind > 20 kt
SIGMETs :     Misc.  Thunderstorms  Icing  Turbulence  Mountain Waves  Volcanic Ashes







- Airport Elevation : 348 ft
- IATA code : STN
- Download approach charts


EGSS - London Stansted

CURRENT METAR :
  • 262220Z AUTO 10007KT 9999 NCD 16/12 Q1015

EXPIRED METARs :
  • 262150Z AUTO 09008KT 9999 NCD 16/12 Q1015
  • 262120Z AUTO 09008KT 030V110 9999 NCD 17/12 Q1015
  • 262050Z AUTO 09009KT 9999 NCD 18/13 Q1015
  • 262020Z AUTO 09010KT 9999 NCD 18/13 Q1015
  • 261950Z AUTO 08008KT 040V100 9999 NCD 19/13 Q1016

TAF TAF EGSS
Valid from the 26 at 18:00 until the 28 at 00:00 UTC


261658Z 2618/2724 12012KT CAVOK
PROB40 2700/2707 5000 BR
BECMG 2707/2710 18010KT
PROB30
TEMPO 2707/2711 4000 +TSRA BKN009 BKN045CB
BECMG 2718/2721 24008KT
ATIS : +44 1279 669 325
No reported NOTAMs for that airfield.



MET'MAP, your aeronautical weather chart ! - Copyright ORBIFLY December 2007 - Disclaimer

ORBIFLY MET'MAP TEAM :

Programming & Development : Alexandra Zaïnal
Concept & Development : Baudouin d'Aumeries
Co-Development & Prog : Marc-Olivier Méhu
Technical & hardware support : Manuel Goepfert

Contact : metmap@orbifly.com




SOURCES & CREDITS :

   NOAA